1970 Tropical Cyclone DAWN (1970041S14139)


IBTrACS version v04r00. Visit IBTrACS website for data access.
Please direct all questions to the IBTrACS Q and A forum

Storm track - Intensity - Wind Radii - Intensity Data - Source Data - All data

Summary Information

Storm ID 1970041S14139
Start Feb 10 05Z
Landfall Feb 11 00Z
Max Intensity 55 kt (Feb 15 12Z), 980 mb (Feb 15 11Z)
End Feb 19 06Z
ATCF IDs ,SH161970
Track status Best track data.

Storm track plot

Map of storm track

Intensity plots

Map of storm track

Radial wind information

No radial wind information for this storm


Position and Intensity Table

BASIN ISO_TIME_________ NATURE LAT LON WMO WIND WMO PRES USA WIND BOM PRES WELLINGTON WIND WELLINGTON PRES DS824 WIND DS824 PRES TD9636 WIND NEUMANN WIND NEUMANN PRES
degrees north degrees east kts mb kts mb kts mb kts mb kts kts mb
SP 1970-02-10 05:00:00 NR -13.90 138.50 1000 1000 20
SP 06:00:00 TS -13.80 138.68 20 999 30 1000 20 30 1000
SP 09:00:00 TS -13.42 139.18 20 999 30 999 21 30 999
SP 11:00:00 TS -13.18 139.52 999 20 999 30 999 22 30 999
SP 12:00:00 TS -13.07 139.70 20 998 30 999 22 30 999
SP 15:00:00 TS -12.74 140.23 22 997 32 997 24 32 997
SP 17:00:00 TS -12.55 140.61 24 996 34 996 25 34 996
SP 18:00:00 TS -12.45 140.80 25 996 35 996 26 35 996
SP 21:00:00 TS -12.19 141.39 32 994 37 995 31 40 995
SP 23:00:00 TS -12.04 141.79 994 37 994 39 994 35 43 994
SP 1970-02-11 00:00:00 TS -11.97 141.99 40 994 40 994 36 45 994
SP 03:00:00 TS -11.79 142.59 42 994 40 994 41 42 994
SP 05:00:00 TS -11.68 143.00 994 44 994 40 994 45 40 994
SP 06:00:00 TS -11.63 143.20 45 994 40 994 44 40 994
SP 08:00:00 TS -11.52 143.62 994 43 994 41 993 42 41 993
SP 09:00:00 TS -11.48 143.83 42 993 42 993 41 42 993
SP 11:00:00 TS -11.42 144.24 992 40 992 44 992 40 44 992
SP 12:00:00 TS -11.40 144.43 40 991 45 992 39 45 992
SP 15:00:00 TS -11.43 144.94 37 990 45 991 36 45 991
SP 17:00:00 TS -11.51 145.30 990 35 990 45 990 35 45 990
SP 18:00:00 TS -11.57 145.51 35 990 45 990 34 45 990
SP 21:00:00 TS -11.79 146.21 32 991 45 991 33 45 991
SP 23:00:00 TS -11.97 146.65 992 30 992 45 991 32 45 991
SP 1970-02-12 00:00:00 TS -12.07 146.80 30 992 40 990 45 992 32 45 992
SP 03:00:00 TS -12.33 147.19 30 992 40 990 45 992 30 45 992
SP 05:00:00 TS -12.49 147.37 30 992 40 990 45 992 30 45 992
SP 06:00:00 TS -12.56 147.45 30 992 40 990 45 992 29 45 992
SP 09:00:00 TS -12.78 147.72 27 992 40 990 45 992 28 45 992
SP 11:00:00 TS -12.93 147.89 992 25 992 40 990 45 992 27 45 992
SP 12:00:00 TS -13.00 147.98 25 992 40 990 45 992 27 45 992
SP 15:00:00 TS -13.25 148.28 25 992 40 990 43 992 25 42 992
SP 17:00:00 TS -13.41 148.49 25 993 40 990 42 992 25 40 992
SP 18:00:00 TS -13.49 148.59 25 993 40 990 42 993 25 40 993
SP 21:00:00 TS -13.74 148.90 25 993 40 990 41 993 26 40 993
SP 23:00:00 TS -13.89 149.12 994 25 994 40 990 40 993 27 40 993
SP 1970-02-13 00:00:00 TS -13.96 149.23 25 994 40 990 40 994 27 40 994
SP 03:00:00 TS -14.12 149.60 27 994 40 990 40 994 29 40 994
SP 05:00:00 TS -14.19 149.88 995 29 995 40 990 40 994 30 40 994
SP 06:00:00 TS -14.22 150.04 30 995 40 990 40 995 30 40 995
SP 09:00:00 TS -14.25 150.57 30 995 40 990 40 995 30 40 995
SP 11:00:00 TS -14.23 150.96 995 30 995 40 990 40 995 30 40 995
SP 12:00:00 TS -14.21 151.15 30 995 40 990 40 995 30 40 995
SP 15:00:00 TS -14.12 151.74 30 995 40 990 40 995 30 40 995
SP 17:00:00 TS -14.04 152.13 30 995 40 990 40 995 30 40 995
SP 18:00:00 TS -14.00 152.33 30 995 40 990 40 995 29 40 995
SP 21:00:00 TS -13.87 152.89 27 995 40 990 40 995 28 40 995
SP 23:00:00 TS -13.79 153.26 995 25 995 40 990 40 995 27 40 995
SP 1970-02-14 00:00:00 TS -13.76 153.45 25 995 40 990 40 995 27 40 995
SP 03:00:00 TS -13.66 153.99 25 995 40 990 40 995 25 40 995
SP 05:00:00 TS -13.61 154.35 995 25 995 40 990 40 995 25 40 995
SP 06:00:00 TS -13.59 154.52 25 995 40 990 40 995 25 40 995
SP 09:00:00 TS -13.55 155.05 27 995 40 990 40 995 28 40 995
SP 11:00:00 TS -13.54 155.39 995 29 995 40 990 40 995 30 40 995
SP 12:00:00 TS -13.54 155.56 30 995 40 990 40 995 30 40 995
SP 15:00:00 TS -13.53 156.07 32 995 40 990 40 995 33 40 995
SP 17:00:00 TS -13.53 156.42 34 995 40 990 40 995 35 40 995
SP 18:00:00 TS -13.53 156.59 35 995 40 990 40 995 34 40 995
SP 21:00:00 TS -13.57 157.12 32 995 40 990 40 995 31 40 995
SP 23:00:00 TS -13.61 157.47 995 30 995 40 990 40 995 30 40 995
SP 1970-02-15 00:00:00 TS -13.63 157.65 30 995 40 990 40 995 29 40 995
SP 03:00:00 TS -13.73 158.16 27 995 43 987 40 995 26 40 995
SP 05:00:00 TS -13.82 158.48 25 995 46 985 40 995 25 40 995
SP 06:00:00 TS -13.87 158.64 25 995 47 985 40 995 24 40 995
SP 08:00:00 TS -13.98 158.92 995 23 995 50 983 40 995 22 40 995
SP 09:00:00 TS -14.05 159.05 22 995 51 982 40 995 21 40 995
SP 11:00:00 TS -14.18 159.30 995 20 995 53 980 40 995 20 40 995
SP 12:00:00 TS -14.24 159.41 20 995 55 980 40 995 19 40 995
SP 15:00:00 TS -14.44 159.75 17 995 55 980 40 995 16 40 995
SP 17:00:00 TS -14.58 159.97 15 995 55 980 40 995 15 40 995
SP 18:00:00 TS -14.65 160.07 15 995 55 980 40 995 15 40 995
SP 21:00:00 TS -14.87 160.39 15 995 55 980 40 995 15 40 995
SP 23:00:00 TS -15.02 160.59 15 995 55 980 40 995 15 40 995
SP 1970-02-16 00:00:00 TS -15.10 160.69 55 980 15 995 55 980 40 995 15 40 995
SP 03:00:00 TS -15.32 160.98 15 995 55 980 40 995 15 40 995
SP 05:00:00 TS -15.48 161.15 15 995 55 980 40 995 15 40 995
SP 06:00:00 TS -15.57 161.24 15 995 55 980 40 995 14 40 995
SP 09:00:00 TS -15.85 161.49 12 995 55 980 40 995 13 40 995
SP 11:00:00 TS -16.07 161.64 10 995 55 980 40 995 12 40 995
SP 12:00:00 TS -16.18 161.71 55 980 10 995 55 980 40 995 12 40 995
SP 14:00:00 TS -16.43 161.83 10 995 52 981 40 995 11 40 995
SP 15:00:00 TS -16.56 161.88 10 995 51 982 40 995 10 40 995
SP 17:00:00 TS -16.83 161.96 10 995 48 984 40 995 10 40 995
SP 18:00:00 TS -16.97 161.99 10 995 47 985 40 995 10 40 995
SP 21:00:00 TS -17.42 162.05 12 995 43 987 40 995 11 40 995
SP 23:00:00 TS -17.73 162.06 14 995 41 989 40 995 12 40 995
SP 1970-02-17 00:00:00 TS -17.88 162.06 40 990 15 995 40 990 40 995 12 40 995
SP 03:00:00 TS -18.32 162.04 15 995 40 990 40 995 14 40 995
SP 05:00:00 TS -18.62 162.00 15 995 40 990 40 995 15 40 995
SP 06:00:00 TS -18.76 161.98 15 995 40 990 40 995 15 40 995
SP 09:00:00 TS -19.22 161.90 17 995 40 990 40 995 16 40 995
SP 11:00:00 TS -19.52 161.82 19 995 40 990 40 995 17 40 995
SP 12:00:00 TS -19.66 161.79 40 990 20 995 40 990 40 995 17 40 995
SP 15:00:00 TS -20.08 161.66 20 995 40 990 40 995 19 40 995
SP 17:00:00 TS -20.34 161.55 20 995 40 990 40 995 20 40 995
SP 18:00:00 TS -20.48 161.49 20 995 40 990 40 995 19 40 995
SP 21:00:00 TS -20.91 161.31 17 995 40 990 40 995 18 40 995
SP 23:00:00 TS -21.19 161.17 15 995 40 990 40 995 17 40 995
SP 1970-02-18 00:00:00 TS -21.34 161.09 40 990 15 995 40 990 40 995 17 40 995
SP 03:00:00 TS -21.75 160.83 15 995 40 990 38 995 15 40 995
SP 05:00:00 TS -22.02 160.64 15 995 40 990 37 995 15 40 995
SP 06:00:00 TS -22.16 160.54 15 995 40 990 37 995 15 40 995
SP 09:00:00 TS -22.59 160.26 17 995 40 990 36 995 16 37 995
SP 11:00:00 TS -22.88 160.07 996 19 996 40 990 35 995 17 35 995
SP 12:00:00 TS -23.01 159.97 20 996 40 990 35 996 17 35 996
SP 15:00:00 TS -23.39 159.69 20 996 40 990 35 996 19 35 996
SP 17:00:00 TS -23.63 159.49 20 997 40 990 35 996 20 35 996
SP 18:00:00 TS -23.75 159.40 20 997 40 990 35 997 20 35 997
SP 21:00:00 TS -24.11 159.10 20 997 40 990 35 997 20 35 997
SP 23:00:00 TS -24.33 158.89 998 20 998 40 990 35 997 20 35 997
SP 1970-02-19 00:00:00 TS -24.42 158.79 20 998 40 990 35 998 20 35 998
SP 03:00:00 TS -24.72 158.42 1001 20 27 1001
SP 05:00:00 TS -24.94 158.17 1004 1004 20 22 1003
SP 06:00:00 TS -25.00 158.20 20 1004

Source Information

Agency Information
USA bsh161970.txt
TOKYO
CMA
HKO
NEWDELHI
REUNION
BOM IDCKMSTM0S.csv:Line=5542:DAWN
NADI
WELLINGTON TC_BT_1967_2006.csv:Line=81:DAWN
DS824 aus_area.dat:446:DAWN
TD9636 cons_worldwide_trop_cyclone_18710101-19891231-006:Line=8346
TD9635
NEUMANN tracks.sh:Storm=265:DAWN:BSH1670:BM386
MLC

All available IBTrACS Data

SEASON BASIN SUBBASIN ISO_TIME_________ NATURE LAT LON WMO WIND WMO PRES WMO AGENCY DIST2LAND LANDFALL IFLAG USA AGENCY USA ATCF_ID USA LAT USA LON USA WIND USA SSHS BOM LAT BOM LON BOM PRES BOM PRES_METHOD WELLINGTON LAT WELLINGTON LON WELLINGTON WIND WELLINGTON PRES DS824 LAT DS824 LON DS824 STAGE DS824 WIND DS824 PRES TD9636 LAT TD9636 LON TD9636 STAGE TD9636 WIND NEUMANN LAT NEUMANN LON NEUMANN CLASS NEUMANN WIND NEUMANN PRES STORM SPEED STORM DIR
Year degrees north degrees east kts mb km km degrees north degrees east kts 1 degrees north degrees east mb degrees north degrees east kts mb degrees north degrees east kts mb degrees north degrees east kts degrees north degrees east kts mb kts degrees
1970 SP EA 1970-02-10 05:00:00 NR -13.90 138.50 1000 bom 167 167 ______O___O___ -1 -13.90 138.50 1000 -13.90 138.50 1 20 12 60
1970 SP EA 06:00:00 TS -13.80 138.68 191 191 O_____P__OP_O_ jtwc_sh SH161970 -13.80 138.70 20 -1 -13.76 138.66 999 -13.80 138.70 TC 30 1000 -13.79 138.67 1 20 -13.90 138.70 TC 30 1000 12 54
1970 SP EA 09:00:00 TS -13.42 139.18 252 228 P_____P__PP_P_ SH161970 -13.44 139.19 20 -1 -13.36 139.16 999 -13.39 139.19 TC 30 999 -13.45 139.18 1 21 -13.48 139.19 TC 30 999 12 53
1970 SP EA 11:00:00 TS -13.18 139.52 999 bom 228 206 P_____O__PP_P_ SH161970 -13.21 139.53 20 -1 -13.10 139.50 999 -13.13 139.53 TC 30 999 -13.23 139.53 1 22 -13.22 139.53 TC 30 999 12 54
1970 SP EA 12:00:00 TS -13.07 139.70 206 153 O_____P__OP_O_ jtwc_sh SH161970 -13.10 139.70 20 -1 -12.98 139.68 998 -13.00 139.70 TC 30 999 -13.12 139.70 1 22 -13.10 139.70 TC 30 999 12 58
1970 SP EA 15:00:00 TS -12.74 140.23 152 108 P_____P__PP_P_ SH161970 -12.78 140.23 22 -1 -12.65 140.23 997 -12.65 140.24 TC 32 997 -12.80 140.23 1 24 -12.78 140.23 TC 32 997 12 60
1970 SP EA 17:00:00 TS -12.55 140.61 109 87 P_____P__PO_P_ SH161970 -12.59 140.61 24 -1 -12.46 140.61 996 -12.45 140.62 TC 34 996 -12.60 140.60 1 25 -12.59 140.61 TC 34 996 12 62
1970 SP EA 18:00:00 TS -12.45 140.80 87 32 O_____P__PP_O_ jtwc_sh SH161970 -12.50 140.80 25 -1 -12.37 140.81 996 -12.36 140.81 TC 35 996 -12.50 140.79 1 26 -12.50 140.80 TC 35 996 13 65
1970 SP EA 21:00:00 TS -12.19 141.39 32 0 P_____P__PP_P_ SH161970 -12.23 141.39 32 -1 -12.13 141.40 994 -12.10 141.40 TC 37 995 -12.23 141.37 1 31 -12.23 141.39 TC 40 995 13 67
1970 SP EA 23:00:00 TS -12.04 141.79 994 bom 10 0 P_____O__PP_P_ SH161970 -12.07 141.80 37 0 -12.00 141.80 994 -11.96 141.80 TC 39 994 -12.07 141.76 1 35 -12.07 141.80 TC 43 994 13 69
1970 SP EA 1970-02-11 00:00:00 TS -11.97 141.99 0 0 O_____P__OP_O_ jtwc_sh SH161970 -12.00 142.00 40 0 -11.95 142.00 994 -11.90 142.00 TC 40 994 -11.99 141.96 1 36 -12.00 142.00 TC 45 994 12 72
1970 SP EA 03:00:00 TS -11.79 142.59 0 0 P_____P__PP_P_ SH161970 -11.78 142.59 42 0 -11.80 142.60 994 -11.73 142.61 TC 40 994 -11.80 142.58 1 41 -11.83 142.60 TC 42 994 12 74
1970 SP EA 05:00:00 TS -11.68 143.00 994 bom 10 10 P_____O__PO_P_ SH161970 -11.65 142.99 44 0 -11.70 143.00 994 -11.64 143.01 TC 40 994 -11.70 143.00 2 45 -11.74 143.00 TC 40 994 12 75
1970 SP EA 06:00:00 TS -11.63 143.20 32 32 O_____P__OP_O_ jtwc_sh SH161970 -11.60 143.20 45 0 -11.63 143.20 994 -11.60 143.20 TC 40 994 -11.65 143.22 2 44 -11.70 143.20 TC 40 994 13 75
1970 SP EA 08:00:00 TS -11.52 143.62 994 bom 70 70 P_____O__PP_P_ SH161970 -11.50 143.63 43 0 -11.50 143.60 994 -11.50 143.60 TC 41 993 -11.55 143.67 2 42 -11.58 143.59 TC 41 993 13 76
1970 SP EA 09:00:00 TS -11.48 143.83 86 86 P_____P__PP_P_ SH161970 -11.45 143.84 42 0 -11.45 143.81 993 -11.46 143.79 TC 42 993 -11.51 143.89 2 41 -11.52 143.79 TC 42 993 12 80
1970 SP EA 11:00:00 TS -11.42 144.24 992 bom 128 128 P_____O__PP_P_ SH161970 -11.41 144.28 40 0 -11.40 144.20 992 -11.41 144.14 TC 44 992 -11.46 144.35 2 40 -11.43 144.19 TC 44 992 12 83
1970 SP EA 12:00:00 TS -11.40 144.43 147 147 O_____P__OP_O_ jtwc_sh SH161970 -11.40 144.50 40 0 -11.38 144.29 991 -11.40 144.30 TC 45 992 -11.44 144.57 2 39 -11.40 144.40 TC 45 992 10 91
1970 SP EA 15:00:00 TS -11.43 144.94 197 197 P_____P__PP_P_ SH161970 -11.45 145.17 37 0 -11.41 144.40 990 -11.45 144.60 TC 45 991 -11.45 145.21 2 36 -11.39 145.11 TC 45 991 10 97
1970 SP EA 17:00:00 TS -11.51 145.30 990 bom 235 235 P_____O__PO_P_ SH161970 -11.54 145.60 35 0 -11.50 144.60 990 4 -11.54 144.83 TC 45 990 -11.50 145.60 2 35 -11.45 145.58 TC 45 990 11 104
1970 SP EA 18:00:00 TS -11.57 145.51 254 250 O_____P__OP_O_ jtwc_sh SH161970 -11.60 145.80 35 0 -11.56 144.87 990 -11.60 145.00 TC 45 990 -11.54 145.79 2 34 -11.50 145.80 TC 45 990 14 108
1970 SP EA 21:00:00 TS -11.79 146.21 251 234 P_____P__PP_P_ SH161970 -11.83 146.34 32 -1 -11.81 145.97 991 -11.83 145.87 TC 45 991 -11.74 146.30 2 33 -11.72 146.41 TC 45 991 14 110
1970 SP EA 23:00:00 TS -11.97 146.65 992 bom 244 234 P_____O__PP_P_ SH161970 -12.01 146.66 30 -1 -12.00 146.70 992 -12.01 146.51 TC 45 991 -11.92 146.61 2 32 -11.91 146.75 TC 45 991 13 116
1970 SP EA 1970-02-12 00:00:00 TS -12.07 146.80 244 240 O_____P_OOP_O_ jtwc_sh SH161970 -12.10 146.80 30 -1 -12.08 146.94 992 -12.20 145.90 40 990 -12.10 146.80 TC 45 992 -12.01 146.76 2 32 -12.00 146.90 TC 45 992 10 124
1970 SP EA 03:00:00 TS -12.33 147.19 250 250 P_____P_PPP_P_ SH161970 -12.36 147.19 30 -1 -12.33 147.42 992 -12.33 146.35 40 990 -12.35 147.34 TC 45 992 -12.31 147.16 2 30 -12.25 147.24 TC 45 992 8 126
1970 SP EA 05:00:00 TS -12.49 147.37 265 265 P_____P_PPO_P_ SH161970 -12.52 147.40 30 -1 -12.50 147.61 992 -12.43 146.65 40 990 -12.52 147.56 TC 45 992 -12.50 147.40 1 30 -12.42 147.41 TC 45 992 7 133
1970 SP EA 06:00:00 TS -12.56 147.45 276 274 O_____P_PPP_O_ jtwc_sh SH161970 -12.60 147.50 30 -1 -12.58 147.67 992 -12.47 146.80 40 990 -12.60 147.65 TC 45 992 -12.58 147.51 1 29 -12.50 147.50 TC 45 992 7 131
1970 SP EA 09:00:00 TS -12.78 147.72 293 292 P_____P_PPP_P_ SH161970 -12.80 147.76 27 -1 -12.83 147.81 992 -12.63 147.25 40 990 -12.86 147.83 TC 45 992 -12.81 147.81 1 28 -12.75 147.80 TC 45 992 7 130
1970 SP EA 11:00:00 TS -12.93 147.89 992 bom 302 302 P_____O_PPP_P_ SH161970 -12.93 147.92 25 -1 -13.00 147.90 992 -12.74 147.55 40 990 -13.02 147.94 TC 45 992 -12.96 147.98 1 27 -12.92 148.00 TC 45 992 7 131
1970 SP EA 12:00:00 TS -13.00 147.98 313 313 O_____P_OOP_O_ jtwc_sh SH161970 -13.00 148.00 25 -1 -13.09 147.99 992 -12.80 147.70 40 990 -13.10 148.00 TC 45 992 -13.04 148.06 1 27 -13.00 148.10 TC 45 992 8 130
1970 SP EA 15:00:00 TS -13.25 148.28 333 333 P_____P_PPP_P_ SH161970 -13.24 148.29 25 -1 -13.38 148.27 992 -13.00 148.14 40 990 -13.36 148.27 TC 43 992 -13.26 148.32 1 25 -13.25 148.40 TC 42 992 8 129
1970 SP EA 17:00:00 TS -13.41 148.49 348 348 P_____P_PPO_P_ SH161970 -13.41 148.50 25 -1 -13.56 148.46 993 -13.14 148.42 40 990 -13.53 148.45 TC 42 992 -13.40 148.50 1 25 -13.42 148.60 TC 40 992 8 129
1970 SP EA 18:00:00 TS -13.49 148.59 354 354 O_____P_PPP_O_ jtwc_sh SH161970 -13.50 148.60 25 -1 -13.65 148.56 993 -13.22 148.56 40 990 -13.61 148.54 TC 42 993 -13.48 148.59 1 25 -13.50 148.70 TC 40 993 8 130
1970 SP EA 21:00:00 TS -13.74 148.90 363 363 P_____P_PPP_P_ SH161970 -13.77 148.88 25 -1 -13.88 148.87 993 -13.46 148.95 40 990 -13.83 148.84 TC 41 993 -13.73 148.89 1 26 -13.77 148.99 TC 40 993 8 128
1970 SP EA 23:00:00 TS -13.89 149.12 994 bom 377 374 P_____O_PPP_P_ SH161970 -13.93 149.08 25 -1 -14.00 149.10 994 -13.62 149.19 40 990 -13.95 149.07 TC 40 993 -13.89 149.10 1 27 -13.93 149.19 TC 40 993 8 123
1970 SP EA 1970-02-13 00:00:00 TS -13.96 149.23 385 379 O_____P_OOP_O_ jtwc_sh SH161970 -14.00 149.20 25 -1 -14.05 149.21 994 -13.70 149.30 40 990 -14.00 149.20 TC 40 994 -13.96 149.22 1 27 -14.00 149.30 TC 40 994 8 116
1970 SP EA 03:00:00 TS -14.12 149.60 386 384 P_____P_PPP_P_ SH161970 -14.14 149.60 27 -1 -14.16 149.59 994 -13.99 149.53 40 990 -14.14 149.61 TC 40 994 -14.13 149.60 1 29 -14.14 149.66 TC 40 994 8 110
1970 SP EA 05:00:00 TS -14.19 149.88 995 bom 393 392 P_____O_PPO_P_ SH161970 -14.19 149.92 29 -1 -14.20 149.90 995 -14.19 149.67 40 990 -14.19 149.93 TC 40 994 -14.20 149.90 1 30 -14.19 149.94 TC 40 994 9 103
1970 SP EA 06:00:00 TS -14.22 150.04 392 391 O_____P_POP_O_ jtwc_sh SH161970 -14.20 150.10 30 -1 -14.22 150.08 995 -14.28 149.73 40 990 -14.20 150.10 TC 40 995 -14.21 150.07 1 30 -14.20 150.10 TC 40 995 10 95
1970 SP EA 09:00:00 TS -14.25 150.57 392 392 P_____P_PPP_P_ SH161970 -14.18 150.68 30 -1 -14.23 150.68 995 -14.53 149.97 40 990 -14.18 150.68 TC 40 995 -14.19 150.64 1 30 -14.24 150.68 TC 40 995 11 91
1970 SP EA 11:00:00 TS -14.23 150.96 995 bom 397 397 P_____O_PPP_P_ SH161970 -14.13 151.09 30 -1 -14.20 151.10 995 -14.66 150.17 40 990 -14.13 151.09 TC 40 995 -14.14 151.05 1 30 -14.22 151.10 TC 40 995 11 86
1970 SP EA 12:00:00 TS -14.21 151.15 401 401 O_____P_OOP_O_ jtwc_sh SH161970 -14.10 151.30 30 -1 -14.17 151.30 995 -14.70 150.30 40 990 -14.10 151.30 TC 40 995 -14.11 151.26 1 30 -14.20 151.30 TC 40 995 12 82
1970 SP EA 15:00:00 TS -14.12 151.74 406 406 P_____P_PPP_P_ SH161970 -14.01 151.92 30 -1 -14.04 151.90 995 -14.76 150.81 40 990 -13.99 151.90 TC 40 995 -13.98 151.89 1 30 -14.07 151.85 TC 40 995 12 80
1970 SP EA 17:00:00 TS -14.04 152.13 410 410 P_____P_PPO_P_ SH161970 -13.94 152.31 30 -1 -13.92 152.29 995 -14.75 151.22 40 990 -13.90 152.29 TC 40 995 -13.90 152.30 1 30 -13.96 152.21 TC 40 995 12 78
1970 SP EA 18:00:00 TS -14.00 152.33 418 418 O_____P_PPP_O_ jtwc_sh SH161970 -13.90 152.50 30 -1 -13.86 152.48 995 -14.73 151.43 40 990 -13.85 152.49 TC 40 995 -13.86 152.49 1 29 -13.90 152.40 TC 40 995 11 77
1970 SP EA 21:00:00 TS -13.87 152.89 440 436 P_____P_PPP_P_ SH161970 -13.80 153.01 27 -1 -13.69 153.04 995 -14.64 152.11 40 990 -13.71 153.06 TC 40 995 -13.75 153.03 1 28 -13.74 153.01 TC 40 995 11 77
1970 SP EA 23:00:00 TS -13.79 153.26 995 bom 456 456 P_____O_PPP_P_ SH161970 -13.73 153.33 25 -1 -13.60 153.40 995 -14.55 152.57 40 990 -13.63 153.42 TC 40 995 -13.68 153.38 1 27 -13.64 153.41 TC 40 995 11 78
1970 SP EA 1970-02-14 00:00:00 TS -13.76 153.45 463 461 O_____P_OOP_O_ jtwc_sh SH161970 -13.70 153.50 25 -1 -13.57 153.57 995 -14.50 152.80 40 990 -13.60 153.60 TC 40 995 -13.64 153.55 1 27 -13.60 153.60 TC 40 995 11 79
1970 SP EA 03:00:00 TS -13.66 153.99 499 499 P_____P_PPP_P_ SH161970 -13.58 154.05 25 -1 -13.52 154.07 995 -14.33 153.46 40 990 -13.53 154.11 TC 40 995 -13.55 154.06 1 25 -13.53 154.11 TC 40 995 11 80
1970 SP EA 05:00:00 TS -13.61 154.35 995 bom 515 515 P_____O_PPO_P_ SH161970 -13.52 154.42 25 -1 -13.50 154.40 995 -14.20 153.90 40 990 -13.51 154.44 TC 40 995 -13.50 154.40 1 25 -13.51 154.44 TC 40 995 11 82
1970 SP EA 06:00:00 TS -13.59 154.52 532 532 O_____P_POP_O_ jtwc_sh SH161970 -13.50 154.60 25 -1 -13.49 154.57 995 -14.13 154.12 40 990 -13.50 154.60 TC 40 995 -13.48 154.57 1 25 -13.50 154.60 TC 40 995 10 85
1970 SP EA 09:00:00 TS -13.55 155.05 569 569 P_____P_PPP_P_ SH161970 -13.48 155.11 27 -1 -13.49 155.07 995 -13.94 154.78 40 990 -13.49 155.10 TC 40 995 -13.45 155.06 1 28 -13.49 155.10 TC 40 995 10 87
1970 SP EA 11:00:00 TS -13.54 155.39 995 bom 605 603 P_____O_PPP_P_ SH161970 -13.49 155.44 29 -1 -13.50 155.40 995 -13.84 155.20 40 990 -13.49 155.43 TC 40 995 -13.45 155.39 1 30 -13.50 155.43 TC 40 995 10 89
1970 SP EA 12:00:00 TS -13.54 155.56 599 582 O_____P_OOP_O_ jtwc_sh SH161970 -13.50 155.60 30 -1 -13.50 155.57 995 -13.80 155.40 40 990 -13.50 155.60 TC 40 995 -13.45 155.56 1 30 -13.50 155.60 TC 40 995 10 89
1970 SP EA 15:00:00 TS -13.53 156.07 578 555 P_____P_PPP_P_ SH161970 -13.49 156.09 32 -1 -13.51 156.07 995 -13.72 155.99 40 990 -13.50 156.11 TC 40 995 -13.47 156.06 1 33 -13.49 156.10 TC 40 995 10 90
1970 SP EA 17:00:00 TS -13.53 156.42 555 541 P_____P_PPO_P_ SH161970 -13.49 156.43 34 0 -13.52 156.40 995 -13.70 156.37 40 990 -13.50 156.45 TC 40 995 -13.50 156.40 2 35 -13.49 156.43 TC 40 995 10 91
1970 SP EA 18:00:00 TS -13.53 156.59 541 517 O_____P_PPP_O_ jtwc_sh SH161970 -13.50 156.60 35 0 -13.52 156.57 995 -13.70 156.56 40 990 -13.51 156.62 TC 40 995 -13.51 156.59 2 34 -13.50 156.60 TC 40 995 10 93
1970 SP EA 21:00:00 TS -13.57 157.12 517 499 P_____P_PPP_P_ SH161970 -13.53 157.15 32 -1 -13.56 157.07 995 -13.73 157.09 40 990 -13.54 157.12 TC 40 995 -13.55 157.16 2 31 -13.53 157.10 TC 40 995 10 95
1970 SP EA 23:00:00 TS -13.61 157.47 995 bom 493 488 P_____O_PPP_P_ SH161970 -13.57 157.52 30 -1 -13.60 157.40 995 -13.77 157.43 40 990 -13.57 157.44 TC 40 995 -13.59 157.55 2 30 -13.57 157.43 TC 40 995 10 97
1970 SP EA 1970-02-15 00:00:00 TS -13.63 157.65 488 474 O_____P_OOP_O_ jtwc_sh SH161970 -13.60 157.70 30 -1 -13.62 157.58 995 -13.80 157.60 40 990 -13.60 157.60 TC 40 995 -13.62 157.73 2 29 -13.60 157.60 TC 40 995 10 101
1970 SP EA 03:00:00 TS -13.73 158.16 470 469 P_____P_PPP_P_ SH161970 -13.73 158.22 27 -1 -13.69 158.13 995 -13.89 158.11 43 987 -13.70 158.06 TC 40 995 -13.71 158.27 2 26 -13.68 158.12 TC 40 995 10 103
1970 SP EA 05:00:00 TS -13.82 158.48 469 466 P_____P_PPO_P_ SH161970 -13.84 158.55 25 -1 -13.75 158.48 995 -13.98 158.43 46 985 -13.79 158.35 TC 40 995 -13.80 158.60 1 25 -13.76 158.44 TC 40 995 10 107
1970 SP EA 06:00:00 TS -13.87 158.64 477 471 O_____P_PPP_O_ jtwc_sh SH161970 -13.90 158.70 25 -1 -13.80 158.63 995 -14.03 158.58 47 985 -13.84 158.49 TC 40 995 -13.85 158.75 1 24 -13.80 158.60 TC 40 995 9 111
1970 SP EA 08:00:00 TS -13.98 158.92 995 bom 474 467 P_____O_PPP_P_ SH161970 -14.03 158.99 23 -1 -13.90 158.90 995 -14.14 158.88 50 983 -13.95 158.77 TC 40 995 -13.96 159.02 1 22 -13.89 158.89 TC 40 995 9 113
1970 SP EA 09:00:00 TS -14.05 159.05 461 461 P_____P_PPP_P_ SH161970 -14.09 159.13 22 -1 -13.96 159.01 995 -14.20 159.02 51 982 -14.01 158.91 TC 40 995 -14.03 159.14 1 21 -13.93 159.02 TC 40 995 8 118
1970 SP EA 11:00:00 TS -14.18 159.30 995 bom 467 461 P_____O_PPP_P_ SH161970 -14.23 159.38 20 -1 -14.10 159.20 995 -14.33 159.28 53 980 -14.13 159.17 TC 40 995 -14.16 159.37 1 20 -14.04 159.28 TC 40 995 8 119
1970 SP EA 12:00:00 TS -14.24 159.41 461 458 O_____P_OOP_O_ jtwc_sh SH161970 -14.30 159.50 20 -1 -14.17 159.31 995 -14.40 159.40 55 980 -14.20 159.30 TC 40 995 -14.23 159.49 1 19 -14.10 159.40 TC 40 995 8 121
1970 SP EA 15:00:00 TS -14.44 159.75 457 457 P_____P_PPP_P_ SH161970 -14.50 159.82 17 -1 -14.38 159.66 995 -14.58 159.73 55 980 -14.40 159.69 TC 40 995 -14.45 159.80 1 16 -14.28 159.76 TC 40 995 8 122
1970 SP EA 17:00:00 TS -14.58 159.97 468 463 P_____P_PPO_P_ SH161970 -14.63 160.01 15 -1 -14.53 159.90 995 -14.72 159.93 55 980 -14.54 159.93 TC 40 995 -14.60 160.00 1 15 -14.42 159.99 TC 40 995 8 124
1970 SP MM 18:00:00 TS -14.65 160.07 474 469 O_____P_PPP_O_ jtwc_sh SH161970 -14.70 160.10 15 -1 -14.61 160.02 995 -14.79 160.02 55 980 -14.62 160.05 TC 40 995 -14.66 160.11 1 15 -14.50 160.10 TC 40 995 8 125
1970 SP MM 21:00:00 TS -14.87 160.39 483 480 P_____P_PPP_P_ SH161970 -14.90 160.40 15 -1 -14.84 160.38 995 -15.03 160.27 55 980 -14.86 160.39 TC 40 995 -14.83 160.44 1 15 -14.74 160.46 TC 40 995 8 126
1970 SP MM 23:00:00 TS -15.02 160.59 487 487 P_____O_PPP_P_ SH161970 -15.03 160.60 15 -1 -15.00 160.60 995 -15.20 160.42 55 980 -15.02 160.60 TC 40 995 -14.95 160.65 1 15 -14.91 160.69 TC 40 995 7 128
1970 SP MM 1970-02-16 00:00:00 TS -15.10 160.69 55 980 wellington 496 493 O_____P_OOP_O_ jtwc_sh SH161970 -15.10 160.70 15 -1 -15.07 160.70 995 -15.30 160.50 55 980 -15.10 160.70 TC 40 995 -15.02 160.75 1 15 -15.00 160.80 TC 40 995 7 129
1970 SP MM 03:00:00 TS -15.32 160.98 511 511 P_____P_PPP_P_ SH161970 -15.28 161.01 15 -1 -15.27 160.98 995 -15.61 160.74 55 980 -15.31 161.01 TC 40 995 -15.23 161.03 1 15 -15.25 161.07 TC 40 995 7 131
1970 SP MM 05:00:00 TS -15.48 161.15 530 530 P_____P_PPO_P_ SH161970 -15.42 161.21 15 -1 -15.42 161.15 995 -15.84 160.90 55 980 -15.46 161.20 TC 40 995 -15.40 161.20 1 15 -15.42 161.22 TC 40 995 7 135
1970 SP MM 06:00:00 TS -15.57 161.24 541 540 O_____P_PPP_O_ jtwc_sh SH161970 -15.50 161.30 15 -1 -15.50 161.23 995 -15.96 160.97 55 980 -15.53 161.28 TC 40 995 -15.49 161.29 1 14 -15.50 161.30 TC 40 995 7 139
1970 SP MM 09:00:00 TS -15.85 161.49 549 538 P_____P_PPP_P_ SH161970 -15.77 161.58 12 -1 -15.77 161.46 995 -16.33 161.19 55 980 -15.79 161.52 TC 40 995 -15.80 161.55 1 13 -15.73 161.57 TC 40 995 8 142
1970 SP MM 11:00:00 TS -16.07 161.64 529 514 P_____O_PPP_P_ SH161970 -15.98 161.74 10 -1 -16.00 161.60 995 -16.58 161.33 55 980 -15.99 161.65 TC 40 995 -16.02 161.70 1 12 -15.90 161.73 TC 40 995 8 148
1970 SP MM 12:00:00 TS -16.18 161.71 55 980 wellington 514 489 O_____P_OOP_O_ jtwc_sh SH161970 -16.10 161.80 10 -1 -16.13 161.67 995 -16.70 161.40 55 980 -16.10 161.70 TC 40 995 -16.15 161.76 1 12 -16.00 161.80 TC 40 995 8 153
1970 SP MM 14:00:00 TS -16.43 161.83 489 474 P_____O_PPP_P_ SH161970 -16.34 161.90 10 -1 -16.40 161.80 995 -16.92 161.57 52 981 -16.36 161.81 TC 40 995 -16.40 161.88 1 11 -16.24 161.93 TC 40 995 8 156
1970 SP MM 15:00:00 TS -16.56 161.88 464 440 P_____P_PPP_P_ SH161970 -16.47 161.94 10 -1 -16.54 161.85 995 -17.03 161.65 51 982 -16.50 161.85 TC 40 995 -16.53 161.93 1 10 -16.37 161.98 TC 40 995 8 162
1970 SP MM 17:00:00 TS -16.83 161.96 440 430 P_____P_PPO_P_ SH161970 -16.75 161.99 10 -1 -16.82 161.93 995 -17.24 161.81 48 984 -16.79 161.92 TC 40 995 -16.80 162.00 1 10 -16.65 162.07 TC 40 995 9 166
1970 SP MM 18:00:00 TS -16.97 161.99 420 383 O_____P_PPP_O_ jtwc_sh SH161970 -16.90 162.00 10 -1 -16.96 161.96 995 -17.36 161.89 47 985 -16.95 161.95 TC 40 995 -16.94 162.03 1 10 -16.80 162.10 TC 40 995 9 171
1970 SP MM 21:00:00 TS -17.42 162.05 377 349 P_____P_PPP_P_ SH161970 -17.40 162.02 12 -1 -17.40 162.00 995 -17.71 162.08 43 987 -17.42 162.00 TC 40 995 -17.37 162.05 1 11 -17.24 162.18 TC 40 995 9 175
1970 SP MM 23:00:00 TS -17.73 162.06 349 332 P_____O_PPP_P_ SH161970 -17.74 162.01 14 -1 -17.70 162.00 995 -17.96 162.17 41 989 -17.74 162.00 TC 40 995 -17.68 162.04 1 12 -17.55 162.20 TC 40 995 9 179
1970 SP MM 1970-02-17 00:00:00 TS -17.88 162.06 40 990 wellington 332 306 O_____P_OOP_O_ jtwc_sh SH161970 -17.90 162.00 15 -1 -17.85 162.01 995 -18.10 162.20 40 990 -17.90 162.00 TC 40 995 -17.83 162.03 1 12 -17.70 162.20 TC 40 995 9 0
1970 SP MM 03:00:00 TS -18.32 162.04 306 283 P_____P_PPP_P_ SH161970 -18.31 161.96 15 -1 -18.30 162.00 995 -18.58 162.23 40 990 -18.33 161.98 TC 40 995 -18.30 161.96 1 14 -18.15 162.17 TC 40 995 9 184
1970 SP MM 05:00:00 TS -18.62 162.00 283 275 P_____P_PPO_P_ SH161970 -18.57 161.92 15 -1 -18.60 161.97 995 -18.92 162.20 40 990 -18.62 161.94 TC 40 995 -18.60 161.90 1 15 -18.45 162.12 TC 40 995 9 188
1970 SP MM 06:00:00 TS -18.76 161.98 268 251 O_____P_PPP_O_ jtwc_sh SH161970 -18.70 161.90 15 -1 -18.75 161.95 995 -19.09 162.18 40 990 -18.76 161.92 TC 40 995 -18.74 161.88 1 15 -18.60 162.10 TC 40 995 9 189
1970 SP MM 09:00:00 TS -19.22 161.90 251 241 P_____P_PPP_P_ SH161970 -19.15 161.81 17 -1 -19.20 161.87 995 -19.61 162.06 40 990 -19.18 161.82 TC 40 995 -19.17 161.82 1 16 -19.06 162.06 TC 40 995 9 191
1970 SP MM 11:00:00 TS -19.52 161.82 246 242 P_____O_PPP_P_ SH161970 -19.45 161.74 19 -1 -19.50 161.80 995 -19.94 161.96 40 990 -19.46 161.74 TC 40 995 -19.46 161.76 1 17 -19.36 162.03 TC 40 995 9 194
1970 SP MM 12:00:00 TS -19.66 161.79 40 990 wellington 239 236 O_____P_OOP_O_ jtwc_sh SH161970 -19.60 161.70 20 -1 -19.64 161.77 995 -20.10 161.90 40 990 -19.60 161.70 TC 40 995 -19.60 161.73 1 17 -19.50 162.00 TC 40 995 9 196
1970 SP MM 15:00:00 TS -20.08 161.66 241 241 P_____P_PPP_P_ SH161970 -20.00 161.56 20 -1 -20.07 161.66 995 -20.51 161.73 40 990 -20.02 161.60 TC 40 995 -20.02 161.60 1 19 -19.90 161.87 TC 40 995 9 198
1970 SP MM 17:00:00 TS -20.34 161.55 250 250 P_____P_PPO_P_ SH161970 -20.26 161.46 20 -1 -20.36 161.57 995 -20.76 161.59 40 990 -20.31 161.51 TC 40 995 -20.30 161.50 1 20 -20.16 161.76 TC 40 995 9 201
1970 SP MM 18:00:00 TS -20.48 161.49 261 261 O_____P_PPP_O_ jtwc_sh SH161970 -20.40 161.40 20 -1 -20.50 161.52 995 -20.88 161.52 40 990 -20.45 161.47 TC 40 995 -20.44 161.44 1 19 -20.30 161.70 TC 40 995 9 202
1970 SP MM 21:00:00 TS -20.91 161.31 288 288 P_____P_PPP_P_ SH161970 -20.85 161.21 17 -1 -20.92 161.34 995 -21.24 161.27 40 990 -20.87 161.30 TC 40 995 -20.87 161.25 1 18 -20.75 161.57 TC 40 995 9 203
1970 SP MM 23:00:00 TS -21.19 161.17 308 308 P_____O_PPP_P_ SH161970 -21.15 161.07 15 -1 -21.20 161.20 995 -21.48 161.09 40 990 -21.16 161.17 TC 40 995 -21.16 161.10 1 17 -21.05 161.47 TC 40 995 10 205
1970 SP MM 1970-02-18 00:00:00 TS -21.34 161.09 40 990 wellington 321 321 O_____P_OOP_O_ jtwc_sh SH161970 -21.30 161.00 15 -1 -21.35 161.12 995 -21.60 161.00 40 990 -21.30 161.10 TC 40 995 -21.30 161.02 1 17 -21.20 161.40 TC 40 995 10 210
1970 SP MM 03:00:00 TS -21.75 160.83 367 367 P_____P_PPP_P_ SH161970 -21.70 160.76 15 -1 -21.78 160.85 995 -21.98 160.71 40 990 -21.74 160.84 TC 38 995 -21.72 160.77 1 15 -21.60 161.12 TC 40 995 10 212
1970 SP MM 05:00:00 TS -22.02 160.64 400 400 P_____P_PPO_P_ SH161970 -21.96 160.59 15 -1 -22.07 160.65 995 -22.25 160.50 40 990 -22.03 160.65 TC 37 995 -22.00 160.60 1 15 -21.86 160.91 TC 40 995 10 213
1970 SP MM 06:00:00 TS -22.16 160.54 420 420 O_____P_PPP_O_ jtwc_sh SH161970 -22.10 160.50 15 -1 -22.22 160.54 995 -22.38 160.39 40 990 -22.17 160.55 TC 37 995 -22.14 160.52 1 15 -22.00 160.80 TC 40 995 10 212
1970 SP MM 09:00:00 TS -22.59 160.26 461 461 P_____P_PPP_P_ SH161970 -22.56 160.26 17 -1 -22.63 160.22 995 -22.78 160.08 40 990 -22.60 160.22 TC 36 995 -22.55 160.27 1 16 -22.46 160.50 TC 37 995 10 212
1970 SP MM 11:00:00 TS -22.88 160.07 996 bom 496 496 P_____O_PPP_P_ SH161970 -22.86 160.09 19 -1 -22.90 160.00 996 -23.06 159.89 40 990 -22.87 160.01 TC 35 995 -22.82 160.09 1 17 -22.76 160.30 TC 35 995 10 212
1970 SP EA 12:00:00 TS -23.01 159.97 511 511 O_____P_OOP_O_ jtwc_sh SH161970 -23.00 160.00 20 -1 -23.03 159.91 996 -23.20 159.80 40 990 -23.00 159.90 TC 35 996 -22.96 160.00 1 17 -22.90 160.20 TC 35 996 9 214
1970 SP EA 15:00:00 TS -23.39 159.69 562 562 P_____P_PPP_P_ SH161970 -23.36 159.71 20 -1 -23.39 159.63 996 -23.63 159.56 40 990 -23.38 159.59 TC 35 996 -23.35 159.71 1 19 -23.26 159.90 TC 35 996 9 215
1970 SP EA 17:00:00 TS -23.63 159.49 592 592 P_____P_PPO_P_ SH161970 -23.59 159.51 20 -1 -23.62 159.44 997 -23.93 159.42 40 990 -23.61 159.39 TC 35 996 -23.60 159.50 1 20 -23.49 159.70 TC 35 996 9 216
1970 SP EA 18:00:00 TS -23.75 159.40 613 584 O_____P_PPP_O_ jtwc_sh SH161970 -23.70 159.40 20 -1 -23.73 159.34 997 -24.08 159.35 40 990 -23.73 159.29 TC 35 997 -23.72 159.39 1 20 -23.60 159.60 TC 35 997 9 217
1970 SP EA 21:00:00 TS -24.11 159.10 584 560 P_____P_PPP_P_ SH161970 -24.05 159.06 20 -1 -24.07 159.03 997 -24.54 159.17 40 990 -24.07 158.99 TC 35 997 -24.08 159.04 1 20 -23.95 159.31 TC 35 997 9 219
1970 SP EA 23:00:00 TS -24.33 158.89 998 bom 560 549 P_____O_PPP_P_ SH161970 -24.28 158.82 20 -1 -24.30 158.80 998 -24.85 159.06 40 990 -24.29 158.80 TC 35 997 -24.32 158.79 1 20 -24.18 159.11 TC 35 997 8 221
1970 SP EA 1970-02-19 00:00:00 TS -24.42 158.79 549 505 O_____P_OOP_O_ jtwc_sh SH161970 -24.40 158.70 20 -1 -24.42 158.68 998 -25.00 159.00 40 990 -24.40 158.70 TC 35 998 -24.43 158.66 1 20 -24.30 159.00 TC 35 998 9 228
1970 SP EA 03:00:00 TS -24.72 158.42 505 483 ______P___P_P_ SH161970 -1 -24.76 158.28 1001 TC -24.77 158.27 1 20 -24.65 158.62 TC 27 1001 9 228
1970 SP EA 05:00:00 TS -24.94 158.17 1004 bom 483 483 ______O___O_P_ SH161970 -1 -25.00 158.00 1004 TC -25.00 158.00 1 20 -24.88 158.34 TC 22 1003 7 216
1970 SP EA 06:00:00 TS -25.00 158.20 483 ____________O_ -1 TC 1 -25.00 158.20 TC 20 1004 4 0